createdAt,value
2023-01-17T00:08:37.450Z,64.48
2023-01-17T00:19:01.064Z,64.57
2023-01-17T00:29:06.071Z,65.01
2023-01-17T00:39:11.749Z,65.44
2023-01-17T00:49:35.554Z,65.66
2023-01-17T00:59:58.203Z,65.76
2023-01-17T01:10:20.504Z,65.85
2023-01-17T01:20:42.802Z,66.28
2023-01-17T01:31:05.062Z,66.09
2023-01-17T01:41:08.919Z,66.18
2023-01-17T01:51:17.874Z,66.06
2023-01-17T02:01:23.020Z,66.10
2023-01-17T02:11:27.935Z,65.75
2023-01-17T02:21:34.880Z,65.44
2023-01-17T02:32:03.565Z,65.68
2023-01-17T02:42:13.062Z,65.71
2023-01-17T02:52:22.687Z,65.68
2023-01-17T03:02:31.153Z,65.65
2023-01-17T03:12:37.911Z,65.87
2023-01-17T03:22:41.557Z,65.68
2023-01-17T03:32:47.082Z,65.74
2023-01-17T03:42:50.709Z,65.77
2023-01-17T03:52:54.210Z,65.86
2023-01-17T04:02:57.677Z,65.71
2023-01-17T04:13:01.405Z,65.70
2023-01-17T04:23:05.815Z,66.11
2023-01-17T04:33:09.412Z,66.04
2023-01-17T04:43:13.008Z,66.29
2023-01-17T04:53:16.792Z,66.29
2023-01-17T05:03:21.941Z,66.27
2023-01-17T05:13:25.511Z,66.29
2023-01-17T05:23:29.204Z,66.30
2023-01-17T05:33:32.779Z,66.38
2023-01-17T05:43:36.293Z,66.41
2023-01-17T05:53:42.180Z,66.60
2023-01-17T06:03:45.877Z,66.61
2023-01-17T06:13:49.517Z,67.22
2023-01-17T06:23:55.558Z,67.07
2023-01-17T06:34:12.745Z,67.13
2023-01-17T06:44:16.425Z,67.38
2023-01-17T06:54:20.111Z,67.59
2023-01-17T07:04:23.850Z,67.52
2023-01-17T07:14:29.518Z,67.39
2023-01-17T07:24:38.395Z,67.49
2023-01-17T07:34:43.444Z,67.66
2023-01-17T07:44:47.202Z,67.95
2023-01-17T07:54:50.834Z,67.64
2023-01-17T08:04:54.432Z,67.59
2023-01-17T08:14:57.968Z,67.47
2023-01-17T08:25:05.253Z,67.51
2023-01-17T08:35:10.067Z,67.25
2023-01-17T08:45:16.905Z,66.92
2023-01-17T08:55:21.876Z,66.75
2023-01-17T09:05:28.074Z,66.52
2023-01-17T09:15:31.752Z,66.01
2023-01-17T09:25:35.864Z,65.22
2023-01-17T09:35:42.950Z,64.70
2023-01-17T09:45:48.376Z,64.08
2023-01-17T09:55:52.382Z,63.83
2023-01-17T10:06:24.597Z,63.52
2023-01-17T10:16:40.854Z,63.06
2023-01-17T10:26:49.656Z,62.29
2023-01-17T10:37:00.718Z,62.01
2023-01-17T10:47:10.455Z,61.70
2023-01-17T10:57:23.559Z,61.45
2023-01-17T11:07:29.444Z,61.50
2023-01-17T11:17:46.600Z,61.79
2023-01-17T11:28:04.411Z,61.51
2023-01-17T11:38:19.676Z,61.68
2023-01-17T11:48:24.626Z,61.17
2023-01-17T11:58:29.101Z,61.08
2023-01-17T12:08:42.628Z,61.08
2023-01-17T12:18:58.893Z,61.19
2023-01-17T12:29:24.915Z,60.90
2023-01-17T12:39:57.282Z,60.86
2023-01-17T12:50:28.874Z,60.64
2023-01-17T13:00:37.216Z,60.65
2023-01-17T13:10:45.279Z,60.33
2023-01-17T13:21:07.908Z,60.10
2023-01-17T13:31:23.863Z,60.28
2023-01-17T13:41:56.591Z,60.25
2023-01-17T13:52:19.219Z,60.39
2023-01-17T14:02:39.315Z,60.51
2023-01-17T14:12:44.715Z,60.81
2023-01-17T14:22:56.208Z,60.79
2023-01-17T14:33:05.253Z,60.71
2023-01-17T14:43:19.001Z,60.72
2023-01-17T14:53:28.864Z,61.01
2023-01-17T15:03:44.465Z,60.86
2023-01-17T15:13:57.962Z,61.01
2023-01-17T15:24:08.726Z,61.23
2023-01-17T15:34:46.990Z,61.42
2023-01-17T15:44:55.812Z,61.95
2023-01-17T15:55:12.736Z,61.90
2023-01-17T16:05:23.287Z,61.71
2023-01-17T16:15:30.769Z,61.62
2023-01-17T16:25:48.964Z,61.66
2023-01-17T16:35:55.150Z,61.56
2023-01-17T16:45:59.212Z,61.51
2023-01-17T16:56:22.518Z,61.78
2023-01-17T17:06:33.284Z,62.27
2023-01-17T17:16:39.686Z,62.84
2023-01-17T17:26:49.338Z,63.55
2023-01-17T17:36:56.230Z,64.13
2023-01-17T17:47:05.176Z,64.56
2023-01-17T17:57:13.988Z,64.75
2023-01-17T18:07:23.458Z,65.16
2023-01-17T18:17:27.508Z,65.43
2023-01-17T18:27:34.251Z,65.32
2023-01-17T18:37:46.071Z,65.32
2023-01-17T18:47:54.044Z,65.13
2023-01-17T18:58:03.834Z,65.26
2023-01-17T19:08:16.705Z,65.32
2023-01-17T19:18:23.485Z,65.35
2023-01-17T19:28:34.126Z,65.19
2023-01-17T19:38:44.060Z,64.81
2023-01-17T19:48:58.667Z,64.76
2023-01-17T19:59:10.975Z,64.55
2023-01-17T20:09:19.977Z,64.39
2023-01-17T20:19:25.465Z,64.46
2023-01-17T20:29:30.172Z,64.64
2023-01-17T20:39:47.756Z,64.44
2023-01-17T20:50:03.486Z,64.41
2023-01-17T21:00:08.684Z,64.29
2023-01-17T21:10:13.253Z,64.62
2023-01-17T21:20:27.966Z,64.33
2023-01-17T21:30:37.810Z,63.90
2023-01-17T21:40:48.189Z,63.97
2023-01-17T21:50:55.425Z,64.12
2023-01-17T22:01:07.862Z,64.37
2023-01-17T22:11:15.779Z,64.62
2023-01-17T22:21:24.845Z,64.66
2023-01-17T22:31:31.841Z,64.70
2023-01-17T22:41:39.532Z,65.15
2023-01-17T22:51:44.527Z,65.27
2023-01-17T23:01:48.397Z,65.27
2023-01-17T23:11:55.402Z,65.52
2023-01-17T23:22:16.359Z,65.25
2023-01-17T23:32:22.919Z,65.55
2023-01-17T23:42:45.639Z,65.82
2023-01-17T23:52:51.432Z,66.37
